createdAt,value
2023-01-02T00:00:27.088Z,15.52
2023-01-02T00:03:30.285Z,15.37
2023-01-02T00:06:39.686Z,15.46
2023-01-02T00:09:41.725Z,15.43
2023-01-02T00:12:43.861Z,15.48
2023-01-02T00:15:47.022Z,15.44
2023-01-02T00:18:49.218Z,15.38
2023-01-02T00:21:51.638Z,15.39
2023-01-02T00:24:54.639Z,15.37
2023-01-02T00:27:57.631Z,15.39
2023-01-02T00:31:09.788Z,15.49
2023-01-02T00:34:11.791Z,15.45
2023-01-02T00:37:13.843Z,15.44
2023-01-02T00:40:16.899Z,15.35
2023-01-02T00:43:19.912Z,15.46
2023-01-02T00:46:22.372Z,15.37
2023-01-02T00:49:26.243Z,15.26
2023-01-02T00:52:28.944Z,15.27
2023-01-02T00:55:31.608Z,15.29
2023-01-02T00:58:33.674Z,15.26
2023-01-02T01:01:36.043Z,15.43
2023-01-02T01:04:38.321Z,15.42
2023-01-02T01:08:05.415Z,15.57
2023-01-02T01:11:09.079Z,15.49
2023-01-02T01:14:11.261Z,15.27
2023-01-02T01:17:13.479Z,15.37
2023-01-02T01:20:15.632Z,15.50
2023-01-02T01:23:17.683Z,15.38
2023-01-02T01:26:20.732Z,15.41
2023-01-02T01:29:22.974Z,15.26
2023-01-02T01:32:25.102Z,15.20
2023-01-02T01:35:29.391Z,15.26
2023-01-02T01:38:32.893Z,15.28
2023-01-02T01:41:36.175Z,14.90
2023-01-02T01:44:49.801Z,15.08
2023-01-02T01:47:55.507Z,15.04
2023-01-02T01:50:58.586Z,14.88
2023-01-02T01:54:16.179Z,15.05
2023-01-02T01:57:27.322Z,15.13
2023-01-02T02:00:31.482Z,15.12
2023-01-02T02:03:37.194Z,15.06
2023-01-02T02:06:41.006Z,14.85
2023-01-02T02:09:59.784Z,14.82
2023-01-02T02:13:03.979Z,14.83
2023-01-02T02:16:17.896Z,15.00
2023-01-02T02:19:40.191Z,14.88
2023-01-02T02:23:06.890Z,14.75
2023-01-02T02:26:40.635Z,14.92
2023-01-02T02:29:42.696Z,15.04
2023-01-02T02:33:07.203Z,15.04
2023-01-02T02:36:22.053Z,14.85
2023-01-02T02:39:36.015Z,14.82
2023-01-02T02:42:57.025Z,14.89
2023-01-02T02:46:17.648Z,14.91
2023-01-02T02:49:38.195Z,14.91
2023-01-02T02:52:57.236Z,14.85
2023-01-02T02:56:03.817Z,14.77
2023-01-02T02:59:06.199Z,14.59
2023-01-02T03:02:08.801Z,14.74
2023-01-02T03:05:16.614Z,14.74
2023-01-02T03:08:33.256Z,14.70
2023-01-02T03:11:47.496Z,14.71
2023-01-02T03:15:06.526Z,14.69
2023-01-02T03:18:10.399Z,14.67
2023-01-02T03:21:45.079Z,14.77
2023-01-02T03:24:51.111Z,14.67
2023-01-02T03:28:01.447Z,14.62
2023-01-02T03:31:05.965Z,14.74
2023-01-02T03:34:18.039Z,14.72
2023-01-02T03:37:33.553Z,14.68
2023-01-02T03:40:44.323Z,14.84
2023-01-02T03:43:56.377Z,14.84
2023-01-02T03:47:37.825Z,14.71
2023-01-02T03:50:50.349Z,14.58
2023-01-02T03:53:54.030Z,14.58
2023-01-02T03:57:01.540Z,14.77
2023-01-02T04:00:10.771Z,14.72
2023-01-02T04:03:25.587Z,14.56
2023-01-02T04:06:34.951Z,14.69
2023-01-02T04:09:40.123Z,14.63
2023-01-02T04:12:47.471Z,14.73
2023-01-02T04:15:52.168Z,14.83
2023-01-02T04:19:01.121Z,14.73
2023-01-02T04:22:10.079Z,14.56
2023-01-02T04:25:14.362Z,14.75
2023-01-02T04:28:25.392Z,14.78
2023-01-02T04:31:43.761Z,14.78
2023-01-02T04:34:46.530Z,14.71
2023-01-02T04:37:48.985Z,14.65
2023-01-02T04:40:51.812Z,14.45
2023-01-02T04:43:57.318Z,14.58
2023-01-02T04:46:59.516Z,14.56
2023-01-02T04:50:01.533Z,14.56
2023-01-02T04:53:04.105Z,14.51
2023-01-02T04:56:06.681Z,14.49
2023-01-02T04:59:10.684Z,14.52
2023-01-02T05:02:12.859Z,14.47
2023-01-02T05:05:15.115Z,14.53
2023-01-02T05:08:18.503Z,14.36
2023-01-02T05:11:21.691Z,14.23
2023-01-02T05:14:23.761Z,14.45
2023-01-02T05:17:25.949Z,16.17
2023-01-02T05:20:29.578Z,16.35
2023-01-02T05:23:50.603Z,16.60
2023-01-02T05:26:54.459Z,17.24
2023-01-02T05:29:57.664Z,18.24
2023-01-02T05:32:59.708Z,18.64
2023-01-02T05:36:04.165Z,18.01
2023-01-02T05:39:12.275Z,18.05
2023-01-02T05:42:14.423Z,19.02
2023-01-02T05:45:16.544Z,19.21
2023-01-02T05:48:18.692Z,18.85
2023-01-02T05:51:20.748Z,18.45
2023-01-02T05:54:23.028Z,19.06
2023-01-02T05:57:25.165Z,19.90
2023-01-02T06:00:27.132Z,21.26
2023-01-02T06:03:29.219Z,21.68
2023-01-02T06:06:36.003Z,22.12
2023-01-02T06:09:37.978Z,22.35
2023-01-02T06:12:39.987Z,22.37
2023-01-02T06:15:42.011Z,21.85
2023-01-02T06:18:44.997Z,20.07
2023-01-02T06:21:47.091Z,19.06
2023-01-02T06:24:49.130Z,18.37
2023-01-02T06:27:51.068Z,17.81
2023-01-02T06:30:53.038Z,17.59
2023-01-02T06:34:00.107Z,18.45
2023-01-02T06:37:09.227Z,19.35
2023-01-02T06:40:12.493Z,19.32
2023-01-02T06:43:15.116Z,19.43
2023-01-02T06:46:20.106Z,20.01
2023-01-02T06:49:22.062Z,19.98
2023-01-02T06:52:24.125Z,21.00
2023-01-02T06:55:26.372Z,20.35
2023-01-02T06:58:33.739Z,19.73
2023-01-02T07:01:35.856Z,21.11
2023-01-02T07:04:38.214Z,20.37
2023-01-02T07:07:40.577Z,19.46
2023-01-02T07:10:43.778Z,20.03
2023-01-02T07:13:50.946Z,21.48
2023-01-02T07:16:53.117Z,20.13
2023-01-02T07:20:01.667Z,19.42
2023-01-02T07:23:04.257Z,20.03
2023-01-02T07:26:07.693Z,20.97
2023-01-02T07:29:09.973Z,20.64
2023-01-02T07:32:12.066Z,19.82
2023-01-02T07:35:15.825Z,20.66
2023-01-02T07:38:17.858Z,21.81
2023-01-02T07:41:23.636Z,21.86
2023-01-02T07:44:25.715Z,22.37
2023-01-02T07:47:27.747Z,20.94
2023-01-02T07:50:30.035Z,20.63
2023-01-02T07:53:32.618Z,22.23
2023-01-02T07:56:34.655Z,21.63
2023-01-02T07:59:37.142Z,20.60
2023-01-02T08:02:39.357Z,20.85
2023-01-02T08:05:41.552Z,22.19
2023-01-02T08:08:44.190Z,21.55
2023-01-02T08:11:46.300Z,20.94
2023-01-02T08:14:48.436Z,22.00
2023-01-02T08:17:50.533Z,22.10
2023-01-02T08:20:52.617Z,21.38
2023-01-02T08:23:56.134Z,22.16
2023-01-02T08:26:58.213Z,22.54
2023-01-02T08:30:00.317Z,22.04
2023-01-02T08:33:02.584Z,20.65
2023-01-02T08:36:05.961Z,20.03
2023-01-02T08:39:08.038Z,19.78
2023-01-02T08:42:10.152Z,19.68
2023-01-02T08:45:12.228Z,19.59
2023-01-02T08:48:20.675Z,19.47
2023-01-02T08:51:28.628Z,20.18
2023-01-02T08:54:31.725Z,19.82
2023-01-02T08:57:36.608Z,19.47
2023-01-02T09:00:38.762Z,19.32
2023-01-02T09:03:41.032Z,19.05
2023-01-02T09:06:44.036Z,18.74
2023-01-02T09:09:46.443Z,18.85
2023-01-02T09:12:48.607Z,18.85
2023-01-02T09:15:50.733Z,18.80
2023-01-02T09:18:55.549Z,18.78
2023-01-02T09:21:57.786Z,18.74
2023-01-02T09:24:59.980Z,18.80
2023-01-02T09:28:02.148Z,18.85
2023-01-02T09:31:11.832Z,18.87
2023-01-02T09:34:15.281Z,19.00
2023-01-02T09:37:18.085Z,18.82
2023-01-02T09:40:20.548Z,18.47
2023-01-02T09:43:33.321Z,18.31
2023-01-02T09:46:51.308Z,18.33
2023-01-02T09:49:56.412Z,18.29
2023-01-02T09:53:02.079Z,18.04
2023-01-02T09:56:07.237Z,18.03
2023-01-02T09:59:36.879Z,18.10
2023-01-02T10:02:43.179Z,18.13
2023-01-02T10:06:07.928Z,18.13
2023-01-02T10:09:17.451Z,18.05
2023-01-02T10:12:35.115Z,18.04
2023-01-02T10:15:39.893Z,18.08
2023-01-02T10:18:45.528Z,18.21
2023-01-02T10:21:51.231Z,18.14
2023-01-02T10:24:55.974Z,18.52
2023-01-02T10:28:03.767Z,18.81
2023-01-02T10:31:12.391Z,18.92
2023-01-02T10:34:20.359Z,19.02
2023-01-02T10:37:22.470Z,19.16
2023-01-02T10:40:25.554Z,19.21
2023-01-02T10:43:29.535Z,19.23
2023-01-02T10:46:36.551Z,19.13
2023-01-02T10:49:40.532Z,19.20
2023-01-02T10:53:07.065Z,19.36
2023-01-02T10:56:20.738Z,19.41
2023-01-02T10:59:27.771Z,19.23
2023-01-02T11:02:37.393Z,19.22
2023-01-02T11:05:55.314Z,19.32
2023-01-02T11:09:15.556Z,19.37
2023-01-02T11:12:20.272Z,19.25
2023-01-02T11:15:33.436Z,19.23
2023-01-02T11:18:37.487Z,19.14
2023-01-02T11:21:41.869Z,19.16
2023-01-02T11:25:06.261Z,19.20
2023-01-02T11:28:17.866Z,19.16
2023-01-02T11:31:22.977Z,21.21
2023-01-02T11:34:37.575Z,22.62
2023-01-02T11:37:51.948Z,22.32
2023-01-02T11:40:57.687Z,22.78
2023-01-02T11:44:01.475Z,23.16
2023-01-02T11:47:07.752Z,23.07
2023-01-02T11:50:26.775Z,23.76
2023-01-02T11:53:37.168Z,23.67
2023-01-02T11:56:43.184Z,22.64
2023-01-02T11:59:50.519Z,23.72
2023-01-02T12:02:54.332Z,23.74
2023-01-02T12:06:17.372Z,23.17
2023-01-02T12:09:58.123Z,23.81
2023-01-02T12:13:33.914Z,23.92
2023-01-02T12:16:48.603Z,23.95
2023-01-02T12:20:05.209Z,24.39
2023-01-02T12:23:30.996Z,23.40
2023-01-02T12:26:46.421Z,22.42
2023-01-02T12:29:48.951Z,22.18
2023-01-02T12:33:14.021Z,23.41
2023-01-02T12:36:42.576Z,23.39
2023-01-02T12:40:04.470Z,23.15
2023-01-02T12:43:25.013Z,22.86
2023-01-02T12:46:47.320Z,22.78
2023-01-02T12:50:08.235Z,22.42
2023-01-02T12:53:32.631Z,22.15
2023-01-02T12:56:51.436Z,21.80
2023-01-02T13:00:11.861Z,21.58
2023-01-02T13:03:29.696Z,21.46
2023-01-02T13:06:46.047Z,21.24
2023-01-02T13:09:51.232Z,20.93
2023-01-02T13:12:56.394Z,20.87
2023-01-02T13:16:11.303Z,20.64
2023-01-02T13:19:48.471Z,20.30
2023-01-02T13:23:12.380Z,20.32
2023-01-02T13:26:16.672Z,20.88
2023-01-02T13:29:20.703Z,21.42
2023-01-02T13:32:30.178Z,21.75
2023-01-02T13:35:38.036Z,21.86
2023-01-02T13:38:41.895Z,21.85
2023-01-02T13:42:14.235Z,21.81
2023-01-02T13:45:18.819Z,21.78
2023-01-02T13:48:40.925Z,21.69
2023-01-02T13:51:42.992Z,21.56
2023-01-02T13:55:10.899Z,21.49
2023-01-02T13:58:17.789Z,21.50
2023-01-02T14:01:25.930Z,21.38
2023-01-02T14:04:35.707Z,21.12
2023-01-02T14:07:43.435Z,20.72
2023-01-02T14:10:46.067Z,19.88
2023-01-02T14:13:52.313Z,19.46
2023-01-02T14:17:23.579Z,20.02
2023-01-02T14:20:30.307Z,22.08
2023-01-02T14:23:42.316Z,21.44
2023-01-02T14:27:17.578Z,20.95
2023-01-02T14:30:52.860Z,22.43
2023-01-02T14:33:56.217Z,21.66
2023-01-02T14:37:00.562Z,21.97
2023-01-02T14:40:20.575Z,22.74
2023-01-02T14:43:32.637Z,21.72
2023-01-02T14:46:35.372Z,22.31
2023-01-02T14:49:38.036Z,22.71
2023-01-02T14:52:44.335Z,21.95
2023-01-02T14:55:48.530Z,22.76
2023-01-02T14:58:52.801Z,22.64
2023-01-02T15:02:01.516Z,21.90
2023-01-02T15:05:10.027Z,22.53
2023-01-02T15:08:15.250Z,23.01
2023-01-02T15:11:42.541Z,22.06
2023-01-02T15:14:45.049Z,22.43
2023-01-02T15:17:49.408Z,22.58
2023-01-02T15:20:54.368Z,21.91
2023-01-02T15:23:59.352Z,22.68
2023-01-02T15:27:32.293Z,23.00
2023-01-02T15:30:40.342Z,21.90
2023-01-02T15:33:42.439Z,22.87
2023-01-02T15:36:45.243Z,22.42
2023-01-02T15:39:50.386Z,21.70
2023-01-02T15:43:14.300Z,21.75
2023-01-02T15:46:18.214Z,21.54
2023-01-02T15:49:22.758Z,21.57
2023-01-02T15:52:30.160Z,22.37
2023-01-02T15:55:38.252Z,21.91
2023-01-02T15:58:49.687Z,21.51
2023-01-02T16:01:56.955Z,22.33
2023-01-02T16:05:15.570Z,21.65
2023-01-02T16:08:24.011Z,21.34
2023-01-02T16:11:26.718Z,21.95
2023-01-02T16:14:36.579Z,21.68
2023-01-02T16:17:40.213Z,21.58
2023-01-02T16:20:42.339Z,21.94
2023-01-02T16:23:52.157Z,21.43
2023-01-02T16:26:54.415Z,21.71
2023-01-02T16:29:57.080Z,22.15
2023-01-02T16:33:03.712Z,21.52
2023-01-02T16:36:10.538Z,21.35
2023-01-02T16:39:47.609Z,20.98
2023-01-02T16:43:03.248Z,20.61
2023-01-02T16:46:11.581Z,20.56
2023-01-02T16:49:20.841Z,20.42
2023-01-02T16:52:23.051Z,20.26
2023-01-02T16:55:25.151Z,20.13
2023-01-02T16:58:30.935Z,20.03
2023-01-02T17:01:34.053Z,20.24
2023-01-02T17:04:37.748Z,20.19
2023-01-02T17:07:39.821Z,19.85
2023-01-02T17:10:42.617Z,19.55
2023-01-02T17:13:46.842Z,19.35
2023-01-02T17:16:49.923Z,19.18
2023-01-02T17:19:51.919Z,19.07
2023-01-02T17:22:54.269Z,19.00
2023-01-02T17:25:56.452Z,18.86
2023-01-02T17:29:00.751Z,18.93
2023-01-02T17:32:05.581Z,20.41
2023-01-02T17:35:09.147Z,21.65
2023-01-02T17:38:11.568Z,21.95
2023-01-02T17:41:15.785Z,21.77
2023-01-02T17:44:19.387Z,22.61
2023-01-02T17:47:58.393Z,22.26
2023-01-02T17:50:44.393Z,21.92
2023-01-02T17:53:48.005Z,22.70
2023-01-02T17:56:51.625Z,21.74
2023-01-02T17:59:54.223Z,21.96
2023-01-02T18:02:56.369Z,22.74
2023-01-02T18:06:06.155Z,22.50
2023-01-02T18:09:10.185Z,22.70
2023-01-02T18:12:13.068Z,22.89
2023-01-02T18:15:16.690Z,22.73
2023-01-02T18:18:19.695Z,22.41
2023-01-02T18:21:24.354Z,22.84
2023-01-02T18:24:31.767Z,22.74
2023-01-02T18:27:35.132Z,22.89
2023-01-02T18:30:37.354Z,23.17
2023-01-02T18:33:39.459Z,22.73
2023-01-02T18:36:42.028Z,22.64
2023-01-02T18:39:44.136Z,22.95
2023-01-02T18:42:55.213Z,21.96
2023-01-02T18:46:09.653Z,22.07
2023-01-02T18:49:27.104Z,22.64
2023-01-02T18:52:33.674Z,22.42
2023-01-02T18:55:40.289Z,21.24
2023-01-02T18:59:02.633Z,20.89
2023-01-02T19:02:27.437Z,20.42
2023-01-02T19:05:36.638Z,20.04
2023-01-02T19:08:39.882Z,19.79
2023-01-02T19:12:02.239Z,19.73
2023-01-02T19:15:43.453Z,19.67
2023-01-02T19:18:53.003Z,19.53
2023-01-02T19:21:56.312Z,19.48
2023-01-02T19:25:34.326Z,19.44
2023-01-02T19:28:37.340Z,19.12
2023-01-02T19:32:03.447Z,19.05
2023-01-02T19:35:08.351Z,19.12
2023-01-02T19:38:30.243Z,19.05
2023-01-02T19:41:51.994Z,19.04
2023-01-02T19:44:59.315Z,19.21
2023-01-02T19:48:02.880Z,19.02
2023-01-02T19:51:06.512Z,19.58
2023-01-02T19:54:08.533Z,19.18
2023-01-02T19:57:12.925Z,18.73
2023-01-02T20:00:17.197Z,18.62
2023-01-02T20:03:21.816Z,18.54
2023-01-02T20:06:24.185Z,18.46
2023-01-02T20:09:27.217Z,18.40
2023-01-02T20:12:40.577Z,18.32
2023-01-02T20:15:42.667Z,18.19
2023-01-02T20:18:44.713Z,18.15
2023-01-02T20:21:46.741Z,17.94
2023-01-02T20:24:49.261Z,17.82
2023-01-02T20:27:54.130Z,17.86
2023-01-02T20:30:56.380Z,17.74
2023-01-02T20:34:00.455Z,17.62
2023-01-02T20:37:02.802Z,17.51
2023-01-02T20:40:10.857Z,17.46
2023-01-02T20:43:13.042Z,17.34
2023-01-02T20:46:15.857Z,17.31
2023-01-02T20:49:19.442Z,17.28
2023-01-02T20:52:23.030Z,17.15
2023-01-02T20:55:25.222Z,17.19
2023-01-02T20:58:28.729Z,16.97
2023-01-02T21:01:31.032Z,16.96
2023-01-02T21:04:36.831Z,16.95
2023-01-02T21:07:39.224Z,16.98
2023-01-02T21:10:42.873Z,16.85
2023-01-02T21:13:45.317Z,16.82
2023-01-02T21:16:47.576Z,16.86
2023-01-02T21:19:49.697Z,16.82
2023-01-02T21:22:51.770Z,16.72
2023-01-02T21:25:55.249Z,16.71
2023-01-02T21:28:57.524Z,16.60
2023-01-02T21:31:59.540Z,16.66
2023-01-02T21:35:01.956Z,16.57
2023-01-02T21:38:05.463Z,16.69
2023-01-02T21:41:28.496Z,16.80
2023-01-02T21:44:33.307Z,16.59
2023-01-02T21:47:37.890Z,16.60
2023-01-02T21:50:40.229Z,16.58
2023-01-02T21:53:42.329Z,16.62
2023-01-02T21:56:53.320Z,16.66
2023-01-02T21:59:56.019Z,16.57
2023-01-02T22:03:01.135Z,16.52
2023-01-02T22:06:03.389Z,16.41
2023-01-02T22:09:05.446Z,16.11
2023-01-02T22:12:08.046Z,15.97
2023-01-02T22:15:12.394Z,15.87
2023-01-02T22:18:14.551Z,15.74
2023-01-02T22:21:18.380Z,15.66
2023-01-02T22:24:23.729Z,15.55
2023-01-02T22:27:25.891Z,15.44
2023-01-02T22:30:34.457Z,15.43
2023-01-02T22:33:37.939Z,15.37
2023-01-02T22:36:40.268Z,15.37
2023-01-02T22:39:42.746Z,15.39
2023-01-02T22:43:03.238Z,15.34
2023-01-02T22:46:11.628Z,15.20
2023-01-02T22:49:22.887Z,15.13
2023-01-02T22:52:26.005Z,15.05
2023-01-02T22:55:28.321Z,15.06
2023-01-02T22:58:30.440Z,15.00
2023-01-02T23:01:45.296Z,15.07
2023-01-02T23:04:48.422Z,14.94
2023-01-02T23:07:50.713Z,14.74
2023-01-02T23:10:54.620Z,14.85
2023-01-02T23:13:57.300Z,14.85
2023-01-02T23:17:17.761Z,14.81
2023-01-02T23:20:19.893Z,14.82
2023-01-02T23:23:21.979Z,14.81
2023-01-02T23:26:30.192Z,14.83
2023-01-02T23:29:32.791Z,14.87
2023-01-02T23:32:35.291Z,14.96
2023-01-02T23:35:37.359Z,14.80
2023-01-02T23:38:39.323Z,14.72
2023-01-02T23:41:43.060Z,14.84
2023-01-02T23:44:44.996Z,14.85
2023-01-02T23:47:47.143Z,14.76
2023-01-02T23:51:02.879Z,14.81
2023-01-02T23:54:05.699Z,14.68
2023-01-02T23:57:07.791Z,14.85
